createdAt,value
2024-02-23T00:00:19.568Z,92973.00
2024-02-23T00:01:19.665Z,92968.00
2024-02-23T00:02:19.727Z,92963.00
2024-02-23T00:03:19.697Z,92970.00
2024-02-23T00:04:19.776Z,92973.00
2024-02-23T00:05:19.858Z,92968.00
2024-02-23T00:06:19.887Z,92962.00
2024-02-23T00:07:19.915Z,92974.00
2024-02-23T00:08:20.400Z,92975.00
2024-02-23T00:09:19.980Z,92994.00
2024-02-23T00:10:20.054Z,92999.00
2024-02-23T00:11:20.237Z,92999.00
2024-02-23T00:12:20.240Z,93003.00
2024-02-23T00:13:20.159Z,92984.00
2024-02-23T00:14:20.241Z,92987.00
2024-02-23T00:15:20.271Z,92984.00
2024-02-23T00:16:20.325Z,92985.00
2024-02-23T00:17:20.393Z,92982.00
2024-02-23T00:18:20.420Z,92992.00
2024-02-23T00:19:20.512Z,92993.00
2024-02-23T00:20:20.559Z,92999.00
2024-02-23T00:21:20.503Z,92998.00
2024-02-23T00:22:20.559Z,92986.00
2024-02-23T00:23:20.664Z,92992.00
2024-02-23T00:24:20.646Z,92991.00
2024-02-23T00:25:20.704Z,92995.00
2024-02-23T00:26:20.769Z,92991.00
2024-02-23T00:27:20.776Z,92992.00
2024-02-23T00:28:20.852Z,92989.00
2024-02-23T00:29:20.958Z,92986.00
2024-02-23T00:30:20.936Z,92990.00
2024-02-23T00:31:20.992Z,92996.00
2024-02-23T00:32:21.090Z,93000.00
2024-02-23T00:33:21.029Z,93006.00
2024-02-23T00:34:21.144Z,93013.00
2024-02-23T00:35:21.163Z,93001.00
2024-02-23T00:36:21.173Z,92998.00
2024-02-23T00:37:21.239Z,93010.00
2024-02-23T00:38:21.267Z,93010.00
2024-02-23T00:39:21.301Z,93007.00
2024-02-23T00:40:21.327Z,93009.00
2024-02-23T00:41:21.464Z,92996.00
2024-02-23T00:42:21.426Z,92987.00
2024-02-23T00:43:21.777Z,92992.00
2024-02-23T00:44:21.588Z,92995.00
2024-02-23T00:45:21.571Z,93000.00
2024-02-23T00:46:21.610Z,93003.00
2024-02-23T00:47:21.661Z,93004.00
2024-02-23T00:48:21.859Z,93010.00
2024-02-23T00:49:21.751Z,93012.00
2024-02-23T00:50:21.789Z,93009.00
2024-02-23T00:51:21.817Z,93010.00
2024-02-23T00:52:21.888Z,93014.00
2024-02-23T00:53:21.988Z,93008.00
2024-02-23T00:54:21.974Z,93001.00
2024-02-23T00:55:22.041Z,93000.00
2024-02-23T00:56:27.070Z,93012.00
2024-02-23T00:57:23.068Z,93017.00
2024-02-23T00:58:22.087Z,93018.00
2024-02-23T00:59:22.272Z,93020.00
2024-02-23T01:00:22.032Z,93022.00
2024-02-23T01:01:22.128Z,93021.00
2024-02-23T01:02:22.109Z,93019.00
2024-02-23T01:03:22.055Z,93020.00
2024-02-23T01:04:22.075Z,93026.00
2024-02-23T01:05:22.147Z,93027.00
2024-02-23T01:06:22.106Z,93023.00
2024-02-23T01:07:22.053Z,93021.00
2024-02-23T01:08:22.160Z,93019.00
2024-02-23T01:09:22.226Z,93025.00
2024-02-23T01:10:22.134Z,93023.00
2024-02-23T01:11:22.255Z,93014.00
2024-02-23T01:12:22.212Z,93015.00
2024-02-23T01:13:22.310Z,93013.00
2024-02-23T01:14:22.467Z,93012.00
2024-02-23T01:15:22.342Z,93012.00
2024-02-23T01:16:22.384Z,93027.00
2024-02-23T01:17:22.576Z,93024.00
2024-02-23T01:18:22.574Z,93021.00
2024-02-23T01:19:22.557Z,93016.00
2024-02-23T01:20:22.586Z,93017.00
2024-02-23T01:21:22.645Z,93023.00
2024-02-23T01:22:22.650Z,93028.00
2024-02-23T01:23:22.807Z,93026.00
2024-02-23T01:24:22.739Z,93026.00
2024-02-23T01:25:22.800Z,93024.00
2024-02-23T01:26:22.887Z,93020.00
2024-02-23T01:27:22.923Z,93024.00
2024-02-23T01:28:22.908Z,93029.00
2024-02-23T01:29:23.087Z,93035.00
2024-02-23T01:30:23.033Z,93040.00
2024-02-23T01:31:23.067Z,93031.00
2024-02-23T01:32:23.198Z,93034.00
2024-02-23T01:33:23.224Z,93039.00
2024-02-23T01:34:23.271Z,93039.00
2024-02-23T01:35:23.379Z,93040.00
2024-02-23T01:36:23.368Z,93030.00
2024-02-23T01:37:25.788Z,93031.00
2024-02-23T01:38:23.425Z,93029.00
2024-02-23T01:39:23.329Z,93030.00
2024-02-23T01:40:23.321Z,93036.00
2024-02-23T01:41:23.374Z,93041.00
2024-02-23T01:42:23.350Z,93038.00
2024-02-23T01:43:23.315Z,93036.00
2024-02-23T01:44:23.412Z,93035.00
2024-02-23T01:45:23.340Z,93034.00
2024-02-23T01:46:23.319Z,93032.00
2024-02-23T01:47:23.379Z,93036.00
2024-02-23T01:48:23.835Z,93039.00
2024-02-23T01:49:23.426Z,93033.00
2024-02-23T01:50:23.370Z,93024.00
2024-02-23T01:51:23.361Z,93022.00
2024-02-23T01:52:23.352Z,93026.00
2024-02-23T01:53:23.482Z,93023.00
2024-02-23T01:54:23.357Z,93024.00
2024-02-23T01:55:23.350Z,93026.00
2024-02-23T01:56:23.442Z,93025.00
2024-02-23T01:57:37.187Z,93024.00
2024-02-23T01:58:24.389Z,93024.00
2024-02-23T01:59:23.368Z,93024.00
2024-02-23T02:00:23.384Z,93024.00
2024-02-23T02:01:23.445Z,93021.00
2024-02-23T02:02:23.421Z,93024.00
2024-02-23T02:03:23.820Z,93024.00
2024-02-23T02:04:23.358Z,93026.00
2024-02-23T02:05:23.505Z,93025.00
2024-02-23T02:06:23.398Z,93026.00
2024-02-23T02:07:23.373Z,93032.00
2024-02-23T02:08:23.423Z,93028.00
2024-02-23T02:09:23.414Z,93031.00
2024-02-23T02:10:23.462Z,93031.00
2024-02-23T02:11:23.638Z,93030.00
2024-02-23T02:12:23.551Z,93017.00
2024-02-23T02:13:23.609Z,93011.00
2024-02-23T02:14:23.728Z,93006.00
2024-02-23T02:15:23.820Z,93009.00
2024-02-23T02:16:23.793Z,93017.00
2024-02-23T02:17:24.015Z,93026.00
2024-02-23T02:18:23.887Z,93033.00
2024-02-23T02:19:23.907Z,93039.00
2024-02-23T02:20:23.991Z,93039.00
2024-02-23T02:21:23.989Z,93042.00
2024-02-23T02:22:24.038Z,93043.00
2024-02-23T02:23:24.336Z,93045.00
2024-02-23T02:24:24.175Z,93047.00
2024-02-23T02:25:24.240Z,93047.00
2024-02-23T02:26:24.338Z,93044.00
2024-02-23T02:27:24.308Z,93038.00
2024-02-23T02:28:24.354Z,93038.00
2024-02-23T02:29:24.505Z,93036.00
2024-02-23T02:30:24.438Z,93034.00
2024-02-23T02:31:24.510Z,93032.00
2024-02-23T02:32:24.647Z,93017.00
2024-02-23T02:33:24.652Z,93013.00
2024-02-23T02:34:24.662Z,93018.00
2024-02-23T02:35:24.740Z,93015.00
2024-02-23T02:36:24.746Z,93011.00
2024-02-23T02:37:24.809Z,93015.00
2024-02-23T02:38:24.958Z,93014.00
2024-02-23T02:39:24.937Z,93017.00
2024-02-23T02:40:24.945Z,93026.00
2024-02-23T02:41:25.030Z,93022.00
2024-02-23T02:42:25.068Z,93027.00
2024-02-23T02:43:25.118Z,93032.00
2024-02-23T02:44:25.196Z,93034.00
2024-02-23T02:45:25.252Z,93038.00
2024-02-23T02:46:25.278Z,93041.00
2024-02-23T02:47:25.544Z,93047.00
2024-02-23T02:48:25.946Z,93047.00
2024-02-23T02:49:25.469Z,93053.00
2024-02-23T02:50:25.548Z,93052.00
2024-02-23T02:51:25.566Z,93054.00
2024-02-23T02:52:25.623Z,93053.00
2024-02-23T02:53:25.758Z,93051.00
2024-02-23T02:54:25.768Z,93048.00
2024-02-23T02:55:25.772Z,93052.00
2024-02-23T02:56:25.986Z,93053.00
2024-02-23T02:57:25.871Z,93053.00
2024-02-23T02:58:25.940Z,93054.00
2024-02-23T02:59:28.677Z,93054.00
2024-02-23T03:00:25.995Z,93053.00
2024-02-23T03:01:26.052Z,93060.00
2024-02-23T03:02:26.093Z,93067.00
2024-02-23T03:03:25.997Z,93065.00
2024-02-23T03:04:26.006Z,93069.00
2024-02-23T03:05:26.011Z,93072.00
2024-02-23T03:06:26.040Z,93078.00
2024-02-23T03:07:25.988Z,93077.00
2024-02-23T03:08:26.002Z,93078.00
2024-02-23T03:09:26.001Z,93079.00
2024-02-23T03:10:26.017Z,93087.00
2024-02-23T03:11:26.117Z,93091.00
2024-02-23T03:12:25.989Z,93089.00
2024-02-23T03:13:26.008Z,93087.00
2024-02-23T03:14:26.108Z,93085.00
2024-02-23T03:15:26.003Z,93085.00
2024-02-23T03:16:26.001Z,93083.00
2024-02-23T03:17:26.210Z,93085.00
2024-02-23T03:18:26.031Z,93086.00
2024-02-23T03:19:26.046Z,93090.00
2024-02-23T03:20:26.072Z,93094.00
2024-02-23T03:21:26.011Z,93094.00
2024-02-23T03:22:26.055Z,93093.00
2024-02-23T03:23:26.132Z,93093.00
2024-02-23T03:24:26.347Z,93093.00
2024-02-23T03:25:26.058Z,93091.00
2024-02-23T03:26:26.084Z,93091.00
2024-02-23T03:27:26.082Z,93090.00
2024-02-23T03:28:26.012Z,93091.00
2024-02-23T03:29:26.054Z,93089.00
2024-02-23T03:30:26.038Z,93090.00
2024-02-23T03:31:26.025Z,93090.00
2024-02-23T03:32:26.041Z,93085.00
2024-02-23T03:33:26.139Z,93089.00
2024-02-23T03:34:26.500Z,93090.00
2024-02-23T03:35:26.134Z,93088.00
2024-02-23T03:36:26.051Z,93095.00
2024-02-23T03:37:26.032Z,93095.00
2024-02-23T03:38:27.028Z,93094.00
2024-02-23T03:39:26.042Z,93092.00
2024-02-23T03:40:26.056Z,93091.00
2024-02-23T03:41:26.118Z,93084.00
2024-02-23T03:42:26.031Z,93082.00
2024-02-23T03:43:26.051Z,93083.00
2024-02-23T03:44:26.114Z,93090.00
2024-02-23T03:45:26.033Z,93092.00
2024-02-23T03:46:26.106Z,93098.00
2024-02-23T03:47:26.448Z,93096.00
2024-02-23T03:48:26.204Z,93099.00
2024-02-23T03:49:26.301Z,93094.00
2024-02-23T03:50:26.350Z,93089.00
2024-02-23T03:51:26.389Z,93094.00
2024-02-23T03:52:26.435Z,93097.00
2024-02-23T03:53:26.516Z,93095.00
2024-02-23T03:54:26.869Z,93100.00
2024-02-23T03:55:26.626Z,93101.00
2024-02-23T03:56:26.710Z,93104.00
2024-02-23T03:57:26.735Z,93106.00
2024-02-23T03:58:26.806Z,93110.00
2024-02-23T03:59:26.953Z,93105.00
2024-02-23T04:00:26.922Z,93106.00
2024-02-23T04:01:26.966Z,93109.00
2024-02-23T04:02:27.125Z,93105.00
2024-02-23T04:03:27.091Z,93105.00
2024-02-23T04:04:27.176Z,93106.00
2024-02-23T04:05:27.238Z,93111.00
2024-02-23T04:06:27.213Z,93109.00
2024-02-23T04:07:27.329Z,93109.00
2024-02-23T04:08:27.346Z,93111.00
2024-02-23T04:09:27.900Z,93112.00
2024-02-23T04:10:27.444Z,93120.00
2024-02-23T04:11:27.567Z,93117.00
2024-02-23T04:12:27.592Z,93122.00
2024-02-23T04:13:27.629Z,93122.00
2024-02-23T04:14:27.718Z,93129.00
2024-02-23T04:15:27.721Z,93126.00
2024-02-23T04:16:27.781Z,93124.00
2024-02-23T04:17:27.951Z,93123.00
2024-02-23T04:18:27.929Z,93124.00
2024-02-23T04:19:27.992Z,93123.00
2024-02-23T04:20:28.035Z,93122.00
2024-02-23T04:21:28.093Z,93122.00
2024-02-23T04:22:28.136Z,93122.00
2024-02-23T04:23:28.304Z,93122.00
2024-02-23T04:24:28.278Z,93127.00
2024-02-23T04:25:28.307Z,93126.00
2024-02-23T04:26:28.400Z,93128.00
2024-02-23T04:27:28.424Z,93130.00
2024-02-23T04:28:28.445Z,93131.00
2024-02-23T04:29:28.966Z,93133.00
2024-02-23T04:30:28.558Z,93133.00
2024-02-23T04:31:28.618Z,93134.00
2024-02-23T04:32:28.818Z,93132.00
2024-02-23T04:33:28.839Z,93127.00
2024-02-23T04:34:28.892Z,93125.00
2024-02-23T04:35:28.933Z,93128.00
2024-02-23T04:36:28.879Z,93125.00
2024-02-23T04:37:28.959Z,93126.00
2024-02-23T04:38:36.282Z,93134.00
2024-02-23T04:39:36.229Z,93135.00
2024-02-23T04:40:36.220Z,93139.00
2024-02-23T04:41:36.238Z,93138.00
2024-02-23T04:42:36.188Z,93139.00
2024-02-23T04:43:36.225Z,93141.00
2024-02-23T04:44:36.353Z,93141.00
2024-02-23T04:45:36.204Z,93140.00
2024-02-23T04:46:36.208Z,93140.00
2024-02-23T04:47:36.383Z,93139.00
2024-02-23T04:48:36.224Z,93137.00
2024-02-23T04:49:36.235Z,93138.00
2024-02-23T04:50:36.264Z,93133.00
2024-02-23T04:51:36.209Z,93133.00
2024-02-23T04:52:36.217Z,93135.00
2024-02-23T04:53:36.283Z,93140.00
2024-02-23T04:54:36.351Z,93140.00
2024-02-23T04:55:36.252Z,93144.00
2024-02-23T04:56:36.239Z,93143.00
2024-02-23T04:57:36.212Z,93146.00
2024-02-23T04:58:36.273Z,93148.00
2024-02-23T04:59:36.270Z,93150.00
2024-02-23T05:00:36.282Z,93151.00
2024-02-23T05:01:36.278Z,93151.00
2024-02-23T05:02:36.533Z,93149.00
2024-02-23T05:03:36.388Z,93148.00
2024-02-23T05:04:36.455Z,93150.00
2024-02-23T05:05:36.604Z,93153.00
2024-02-23T05:06:36.623Z,93153.00
2024-02-23T05:07:36.623Z,93155.00
2024-02-23T05:08:36.750Z,93154.00
2024-02-23T05:09:36.687Z,93157.00
2024-02-23T05:10:36.811Z,93159.00
2024-02-23T05:11:36.984Z,93159.00
2024-02-23T05:12:36.888Z,93161.00
2024-02-23T05:13:36.897Z,93167.00
2024-02-23T05:14:37.028Z,93170.00
2024-02-23T05:15:37.034Z,93169.00
2024-02-23T05:16:37.075Z,93172.00
2024-02-23T05:17:37.275Z,93174.00
2024-02-23T05:18:37.320Z,93177.00
2024-02-23T05:19:37.343Z,93182.00
2024-02-23T05:20:37.475Z,93181.00
2024-02-23T05:21:37.396Z,93183.00
2024-02-23T05:22:37.436Z,93182.00
2024-02-23T05:23:37.521Z,93185.00
2024-02-23T05:24:37.573Z,93184.00
2024-02-23T05:25:37.594Z,93183.00
2024-02-23T05:26:37.665Z,93182.00
2024-02-23T05:27:37.707Z,93179.00
2024-02-23T05:28:37.775Z,93175.00
2024-02-23T05:29:37.878Z,93175.00
2024-02-23T05:30:37.875Z,93172.00
2024-02-23T05:31:37.931Z,93173.00
2024-02-23T05:32:38.132Z,93175.00
2024-02-23T05:33:38.039Z,93182.00
2024-02-23T05:34:38.271Z,93185.00
2024-02-23T05:35:38.219Z,93186.00
2024-02-23T05:36:38.228Z,93185.00
2024-02-23T05:37:38.298Z,93183.00
2024-02-23T05:38:38.405Z,93181.00
2024-02-23T05:39:38.424Z,93182.00
2024-02-23T05:40:38.489Z,93181.00
2024-02-23T05:41:38.589Z,93182.00
2024-02-23T05:42:39.805Z,93180.00
2024-02-23T05:43:38.662Z,93183.00
2024-02-23T05:44:38.679Z,93185.00
2024-02-23T05:45:38.723Z,93189.00
2024-02-23T05:46:38.879Z,93190.00
2024-02-23T05:47:38.992Z,93194.00
2024-02-23T05:48:39.015Z,93196.00
2024-02-23T05:49:39.379Z,93196.00
2024-02-23T05:50:39.123Z,93201.00
2024-02-23T05:51:39.130Z,93203.00
2024-02-23T05:52:39.178Z,93205.00
2024-02-23T05:53:39.364Z,93209.00
2024-02-23T05:54:39.347Z,93208.00
2024-02-23T05:55:39.418Z,93212.00
2024-02-23T05:56:39.502Z,93215.00
2024-02-23T05:57:39.530Z,93217.00
2024-02-23T05:58:39.573Z,93223.00
2024-02-23T05:59:39.856Z,93226.00
2024-02-23T06:00:39.813Z,93228.00
2024-02-23T06:01:39.780Z,93228.00
2024-02-23T06:02:39.971Z,93228.00
2024-02-23T06:03:39.908Z,93223.00
2024-02-23T06:04:39.987Z,93220.00
2024-02-23T06:05:40.060Z,93217.00
2024-02-23T06:06:40.269Z,93213.00
2024-02-23T06:07:40.213Z,93214.00
2024-02-23T06:08:40.329Z,93216.00
2024-02-23T06:09:40.331Z,93219.00
2024-02-23T06:10:40.440Z,93218.00
2024-02-23T06:11:40.534Z,93214.00
2024-02-23T06:12:40.561Z,93217.00
2024-02-23T06:13:40.596Z,93216.00
2024-02-23T06:14:40.678Z,93218.00
2024-02-23T06:15:40.699Z,93220.00
2024-02-23T06:16:40.785Z,93221.00
2024-02-23T06:17:40.919Z,93223.00
2024-02-23T06:18:40.909Z,93225.00
2024-02-23T06:19:41.082Z,93227.00
2024-02-23T06:20:41.055Z,93224.00
2024-02-23T06:21:41.060Z,93225.00
2024-02-23T06:22:41.140Z,93223.00
2024-02-23T06:23:41.306Z,93222.00
2024-02-23T06:24:41.270Z,93220.00
2024-02-23T06:25:42.915Z,93224.00
2024-02-23T06:26:41.350Z,93227.00
2024-02-23T06:27:41.354Z,93226.00
2024-02-23T06:28:41.349Z,93227.00
2024-02-23T06:29:41.376Z,93231.00
2024-02-23T06:30:41.339Z,93235.00
2024-02-23T06:31:41.347Z,93235.00
2024-02-23T06:32:41.769Z,93236.00
2024-02-23T06:33:41.455Z,93240.00
2024-02-23T06:34:41.364Z,93238.00
2024-02-23T06:35:41.576Z,93240.00
2024-02-23T06:36:41.342Z,93241.00
2024-02-23T06:37:41.376Z,93244.00
2024-02-23T06:38:41.417Z,93246.00
2024-02-23T06:39:41.394Z,93255.00
2024-02-23T06:40:48.417Z,93261.00
2024-02-23T06:41:42.446Z,93262.00
2024-02-23T06:42:41.374Z,93266.00
2024-02-23T06:43:41.383Z,93266.00
2024-02-23T06:44:41.404Z,93264.00
2024-02-23T06:45:41.398Z,93265.00
2024-02-23T06:46:41.386Z,93262.00
2024-02-23T06:47:41.640Z,93263.00
2024-02-23T06:48:41.616Z,93264.00
2024-02-23T06:49:41.460Z,93269.00
2024-02-23T06:50:41.549Z,93273.00
2024-02-23T06:51:41.525Z,93276.00
2024-02-23T06:52:41.613Z,93277.00
2024-02-23T06:53:41.679Z,93278.00
2024-02-23T06:54:41.723Z,93278.00
2024-02-23T06:55:41.779Z,93278.00
2024-02-23T06:56:41.880Z,93278.00
2024-02-23T06:57:41.960Z,93279.00
2024-02-23T06:58:41.946Z,93282.00
2024-02-23T06:59:42.413Z,93283.00
2024-02-23T07:00:42.088Z,93285.00
2024-02-23T07:01:42.140Z,93284.00
2024-02-23T07:02:42.249Z,93286.00
2024-02-23T07:03:42.305Z,93287.00
2024-02-23T07:04:42.321Z,93289.00
2024-02-23T07:05:42.567Z,93286.00
2024-02-23T07:06:42.501Z,93284.00
2024-02-23T07:07:42.510Z,93282.00
2024-02-23T07:08:42.637Z,93283.00
2024-02-23T07:09:42.636Z,93284.00
2024-02-23T07:10:43.429Z,93283.00
2024-02-23T07:11:42.914Z,93286.00
2024-02-23T07:12:42.791Z,93284.00
2024-02-23T07:13:42.873Z,93286.00
2024-02-23T07:14:42.994Z,93287.00
2024-02-23T07:15:43.001Z,93289.00
2024-02-23T07:16:43.084Z,93291.00
2024-02-23T07:17:43.157Z,93294.00
2024-02-23T07:18:43.169Z,93297.00
2024-02-23T07:19:43.292Z,93299.00
2024-02-23T07:20:43.415Z,93301.00
2024-02-23T07:21:44.290Z,93302.00
2024-02-23T07:22:43.418Z,93303.00
2024-02-23T07:23:43.510Z,93306.00
2024-02-23T07:24:43.580Z,93304.00
2024-02-23T07:25:43.667Z,93302.00
2024-02-23T07:26:43.702Z,93300.00
2024-02-23T07:27:43.766Z,93297.00
2024-02-23T07:28:43.814Z,93293.00
2024-02-23T07:29:44.477Z,93294.00
2024-02-23T07:30:43.938Z,93292.00
2024-02-23T07:31:44.045Z,93294.00
2024-02-23T07:32:44.157Z,93294.00
2024-02-23T07:33:44.421Z,93295.00
2024-02-23T07:34:44.235Z,93289.00
2024-02-23T07:35:44.486Z,93283.00
2024-02-23T07:36:44.392Z,93275.00
2024-02-23T07:37:44.404Z,93272.00
2024-02-23T07:38:44.471Z,93270.00
2024-02-23T07:39:44.925Z,93272.00
2024-02-23T07:40:44.636Z,93272.00
2024-02-23T07:41:44.791Z,93276.00
2024-02-23T07:42:44.763Z,93279.00
2024-02-23T07:43:44.826Z,93281.00
2024-02-23T07:44:44.900Z,93278.00
2024-02-23T07:45:44.996Z,93273.00
2024-02-23T07:46:45.048Z,93271.00
2024-02-23T07:47:45.188Z,93272.00
2024-02-23T07:48:45.266Z,93272.00
2024-02-23T07:49:45.269Z,93269.00
2024-02-23T07:50:45.364Z,93264.00
2024-02-23T07:51:45.396Z,93261.00
2024-02-23T07:52:45.552Z,93254.00
2024-02-23T07:53:45.560Z,93254.00
2024-02-23T07:54:45.913Z,93256.00
2024-02-23T07:55:45.649Z,93260.00
2024-02-23T07:56:45.762Z,93266.00
2024-02-23T07:57:45.796Z,93265.00
2024-02-23T07:58:45.846Z,93265.00
2024-02-23T07:59:46.418Z,93264.00
2024-02-23T08:00:46.068Z,93260.00
2024-02-23T08:01:46.081Z,93252.00
2024-02-23T08:02:46.143Z,93245.00
2024-02-23T08:03:46.175Z,93241.00
2024-02-23T08:04:46.439Z,93241.00
2024-02-23T08:05:46.393Z,93239.00
2024-02-23T08:06:46.376Z,93242.00
2024-02-23T08:07:46.610Z,93242.00
2024-02-23T08:08:46.647Z,93243.00
2024-02-23T08:09:46.935Z,93242.00
2024-02-23T08:10:47.639Z,93242.00
2024-02-23T08:11:47.698Z,93245.00
2024-02-23T08:12:46.737Z,93241.00
2024-02-23T08:13:46.646Z,93242.00
2024-02-23T08:14:47.028Z,93243.00
2024-02-23T08:15:46.711Z,93242.00
2024-02-23T08:16:46.673Z,93243.00
2024-02-23T08:17:46.744Z,93239.00
2024-02-23T08:18:46.648Z,93235.00
2024-02-23T08:19:47.086Z,93231.00
2024-02-23T08:20:46.780Z,93230.00
2024-02-23T08:21:46.706Z,93227.00
2024-02-23T08:22:46.678Z,93228.00
2024-02-23T08:23:46.704Z,93225.00
2024-02-23T08:24:46.706Z,93228.00
2024-02-23T08:25:46.670Z,93228.00
2024-02-23T08:26:46.678Z,93227.00
2024-02-23T08:27:46.684Z,93226.00
2024-02-23T08:28:46.691Z,93231.00
2024-02-23T08:29:46.697Z,93229.00
2024-02-23T08:30:46.737Z,93231.00
2024-02-23T08:31:46.792Z,93231.00
2024-02-23T08:32:47.076Z,93231.00
2024-02-23T08:33:46.961Z,93234.00
2024-02-23T08:34:47.510Z,93236.00
2024-02-23T08:35:47.155Z,93236.00
2024-02-23T08:36:47.119Z,93234.00
2024-02-23T08:37:47.199Z,93234.00
2024-02-23T08:38:47.285Z,93237.00
2024-02-23T08:39:47.339Z,93242.00
2024-02-23T08:40:47.346Z,93248.00
2024-02-23T08:41:47.395Z,93253.00
2024-02-23T08:42:47.453Z,93255.00
2024-02-23T08:43:47.516Z,93257.00
2024-02-23T08:44:48.063Z,93262.00
2024-02-23T08:45:47.638Z,93266.00
2024-02-23T08:46:47.648Z,93269.00
2024-02-23T08:47:47.865Z,93276.00
2024-02-23T08:48:47.787Z,93273.00
2024-02-23T08:49:47.967Z,93275.00
2024-02-23T08:50:47.900Z,93279.00
2024-02-23T08:51:47.932Z,93278.00
2024-02-23T08:52:48.014Z,93276.00
2024-02-23T08:53:48.157Z,93274.00
2024-02-23T08:54:48.162Z,93271.00
2024-02-23T08:55:48.226Z,93275.00
2024-02-23T08:56:48.299Z,93277.00
2024-02-23T08:57:48.345Z,93284.00
2024-02-23T08:58:48.430Z,93289.00
2024-02-23T08:59:48.969Z,93287.00
2024-02-23T09:00:48.592Z,93286.00
2024-02-23T09:01:48.577Z,93285.00
2024-02-23T09:02:48.618Z,93284.00
2024-02-23T09:03:48.633Z,93285.00
2024-02-23T09:04:48.697Z,93287.00
2024-02-23T09:05:48.818Z,93291.00
2024-02-23T09:06:48.938Z,93295.00
2024-02-23T09:07:48.894Z,93302.00
2024-02-23T09:08:48.970Z,93301.00
2024-02-23T09:09:48.916Z,93302.00
2024-02-23T09:10:48.949Z,93301.00
2024-02-23T09:11:49.075Z,93302.00
2024-02-23T09:12:49.062Z,93301.00
2024-02-23T09:13:49.039Z,93298.00
2024-02-23T09:14:50.022Z,93304.00
2024-02-23T09:15:49.111Z,93306.00
2024-02-23T09:16:49.080Z,93306.00
2024-02-23T09:17:49.163Z,93305.00
2024-02-23T09:18:49.152Z,93306.00
2024-02-23T09:19:49.502Z,93307.00
2024-02-23T09:20:49.190Z,93308.00
2024-02-23T09:21:49.177Z,93311.00
2024-02-23T09:22:49.218Z,93310.00
2024-02-23T09:23:49.176Z,93307.00
2024-02-23T09:24:49.446Z,93310.00
2024-02-23T09:25:49.237Z,93310.00
2024-02-23T09:26:49.312Z,93311.00
2024-02-23T09:27:49.244Z,93311.00
2024-02-23T09:28:50.003Z,93311.00
2024-02-23T09:29:49.269Z,93317.00
2024-02-23T09:30:49.267Z,93317.00
2024-02-23T09:31:49.318Z,93319.00
2024-02-23T09:32:49.551Z,93318.00
2024-02-23T09:33:49.514Z,93321.00
2024-02-23T09:34:49.444Z,93320.00
2024-02-23T09:35:49.525Z,93320.00
2024-02-23T09:36:49.732Z,93322.00
2024-02-23T09:37:49.584Z,93320.00
2024-02-23T09:38:49.728Z,93316.00
2024-02-23T09:39:49.726Z,93319.00
2024-02-23T09:40:49.774Z,93326.00
2024-02-23T09:41:49.882Z,93320.00
2024-02-23T09:42:49.962Z,93320.00
2024-02-23T09:43:50.004Z,93320.00
2024-02-23T09:44:50.485Z,93324.00
2024-02-23T09:45:50.138Z,93325.00
2024-02-23T09:46:50.179Z,93329.00
2024-02-23T09:47:50.307Z,93330.00
2024-02-23T09:48:50.407Z,93331.00
2024-02-23T09:49:50.510Z,93331.00
2024-02-23T09:50:50.465Z,93332.00
2024-02-23T09:51:50.500Z,93332.00
2024-02-23T09:52:50.642Z,93331.00
2024-02-23T09:53:50.729Z,93329.00
2024-02-23T09:54:50.707Z,93326.00
2024-02-23T09:55:50.790Z,93323.00
2024-02-23T09:56:50.826Z,93330.00
2024-02-23T09:57:50.938Z,93323.00
2024-02-23T09:58:51.007Z,93329.00
2024-02-23T09:59:51.519Z,93330.00
2024-02-23T10:00:51.139Z,93333.00
2024-02-23T10:01:51.149Z,93333.00
2024-02-23T10:02:51.227Z,93333.00
2024-02-23T10:03:51.383Z,93332.00
2024-02-23T10:04:51.361Z,93334.00
2024-02-23T10:05:51.398Z,93336.00
2024-02-23T10:06:51.608Z,93331.00
2024-02-23T10:07:51.699Z,93331.00
2024-02-23T10:08:51.612Z,93330.00
2024-02-23T10:09:52.005Z,93333.00
2024-02-23T10:10:51.806Z,93327.00
2024-02-23T10:11:51.872Z,93329.00
2024-02-23T10:12:51.868Z,93332.00
2024-02-23T10:13:52.052Z,93332.00
2024-02-23T10:14:52.016Z,93336.00
2024-02-23T10:16:05.136Z,93334.00
2024-02-23T10:16:53.077Z,93333.00
2024-02-23T10:17:52.147Z,93334.00
2024-02-23T10:18:52.154Z,93334.00
2024-02-23T10:19:52.091Z,93337.00
2024-02-23T10:20:52.062Z,93337.00
2024-02-23T10:21:52.028Z,93336.00
2024-02-23T10:22:52.087Z,93336.00
2024-02-23T10:23:52.299Z,93337.00
2024-02-23T10:24:52.183Z,93338.00
2024-02-23T10:25:52.287Z,93340.00
2024-02-23T10:26:52.309Z,93344.00
2024-02-23T10:27:52.340Z,93343.00
2024-02-23T10:28:52.771Z,93346.00
2024-02-23T10:29:52.691Z,93346.00
2024-02-23T10:30:52.564Z,93345.00
2024-02-23T10:31:52.751Z,93347.00
2024-02-23T10:32:52.814Z,93350.00
2024-02-23T10:33:52.816Z,93349.00
2024-02-23T10:34:53.200Z,93354.00
2024-02-23T10:35:52.964Z,93352.00
2024-02-23T10:36:52.973Z,93352.00
2024-02-23T10:37:53.138Z,93352.00
2024-02-23T10:38:53.150Z,93349.00
2024-02-23T10:39:53.483Z,93350.00
2024-02-23T10:40:53.290Z,93350.00
2024-02-23T10:41:53.329Z,93349.00
2024-02-23T10:42:53.352Z,93348.00
2024-02-23T10:43:53.472Z,93350.00
2024-02-23T10:44:53.518Z,93352.00
2024-02-23T10:45:53.560Z,93352.00
2024-02-23T10:46:53.676Z,93355.00
2024-02-23T10:47:53.844Z,93360.00
2024-02-23T10:48:53.847Z,93362.00
2024-02-23T10:49:53.742Z,93359.00
2024-02-23T10:50:53.770Z,93361.00
2024-02-23T10:51:53.843Z,93357.00
2024-02-23T10:52:53.943Z,93360.00
2024-02-23T10:53:53.975Z,93360.00
2024-02-23T10:54:54.007Z,93363.00
2024-02-23T10:55:54.060Z,93363.00
2024-02-23T10:56:54.151Z,93364.00
2024-02-23T10:57:54.172Z,93356.00
2024-02-23T10:58:54.261Z,93359.00
2024-02-23T10:59:54.513Z,93358.00
2024-02-23T11:00:54.362Z,93363.00
2024-02-23T11:01:54.526Z,93364.00
2024-02-23T11:02:54.488Z,93368.00
2024-02-23T11:03:54.534Z,93373.00
2024-02-23T11:04:54.708Z,93374.00
2024-02-23T11:05:54.731Z,93376.00
2024-02-23T11:06:54.829Z,93375.00
2024-02-23T11:07:54.732Z,93375.00
2024-02-23T11:08:54.796Z,93372.00
2024-02-23T11:09:55.033Z,93369.00
2024-02-23T11:10:55.040Z,93368.00
2024-02-23T11:11:55.181Z,93367.00
2024-02-23T11:12:55.026Z,93369.00
2024-02-23T11:13:55.145Z,93368.00
2024-02-23T11:14:55.156Z,93368.00
2024-02-23T11:15:55.266Z,93372.00
2024-02-23T11:16:55.293Z,93373.00
2024-02-23T11:17:55.496Z,93378.00
2024-02-23T11:18:55.405Z,93381.00
2024-02-23T11:19:55.613Z,93383.00
2024-02-23T11:20:55.569Z,93388.00
2024-02-23T11:21:55.593Z,93388.00
2024-02-23T11:22:55.724Z,93390.00
2024-02-23T11:23:55.695Z,93394.00
2024-02-23T11:24:56.160Z,93401.00
2024-02-23T11:25:55.895Z,93397.00
2024-02-23T11:26:55.988Z,93400.00
2024-02-23T11:27:55.994Z,93401.00
2024-02-23T11:28:56.109Z,93398.00
2024-02-23T11:29:56.567Z,93398.00
2024-02-23T11:30:56.186Z,93397.00
2024-02-23T11:31:56.270Z,93399.00
2024-02-23T11:32:56.455Z,93403.00
2024-02-23T11:33:56.458Z,93406.00
2024-02-23T11:34:56.502Z,93407.00
2024-02-23T11:35:56.498Z,93404.00
2024-02-23T11:36:56.529Z,93402.00
2024-02-23T11:37:56.628Z,93403.00
2024-02-23T11:38:56.633Z,93405.00
2024-02-23T11:39:56.699Z,93406.00
2024-02-23T11:40:56.733Z,93407.00
2024-02-23T11:41:56.773Z,93410.00
2024-02-23T11:42:56.947Z,93412.00
2024-02-23T11:43:56.974Z,93418.00
2024-02-23T11:44:56.980Z,93421.00